Time;durP1;ratioP1;P1;durP2;ratioP2;P2;SDS_P1;SDS_P2;PMS_P1;PMS_P2;Temp;Humidity;BMP_temperature;BMP_pressure;BME280_temperature;BME280_humidity;BME280_pressure;Samples;Min_cycle;Max_cycle;Signal;HPM_P1;HPM_P2
2023/12/17 00:00:37;;;;;;;15.20;10.88;;;;;;;-146.25;100.00;52643.97;2063625;28;34419;-78
2023/12/17 00:01:39;;;;;;;15.13;11.00;;;;;;;-146.25;100.00;52648.00;2071871;28;34526;-78
2023/12/17 00:02:41;;;;;;;14.32;11.35;;;;;;;-146.25;100.00;52577.03;2071998;28;35439;-78
2023/12/17 00:03:43;;;;;;;18.27;11.35;;;;;;;-146.25;100.00;52660.19;2063560;28;38544;-79
2023/12/17 00:04:45;;;;;;;14.82;11.27;;;;;;;-146.25;100.00;52627.75;2063518;28;35267;-77
2023/12/17 00:05:48;;;;;;;14.45;10.52;;;;;;;-146.25;100.00;52635.84;2072521;28;28955;-79
2023/12/17 00:06:50;;;;;;;16.05;10.77;;;;;;;-146.25;100.00;52611.50;2072455;28;39446;-79
2023/12/17 00:07:52;;;;;;;14.40;10.65;;;;;;;-146.25;100.00;52633.81;2072212;28;36250;-79
2023/12/17 00:08:54;;;;;;;14.13;10.73;;;;;;;-146.25;100.00;52621.66;2072423;28;30790;-78
2023/12/17 00:09:55;;;;;;;12.13;9.32;;;;;;;-146.25;100.00;52641.94;2055220;28;37896;-79
2023/12/17 00:10:58;;;;;;;12.57;10.27;;;;;;;-146.25;100.00;52668.28;2055704;28;34524;-79
2023/12/17 00:12:00;;;;;;;12.77;10.27;;;;;;;-146.25;100.00;52688.56;2063308;28;32904;-79
2023/12/17 00:13:04;;;;;;;17.25;10.32;;;;;;;-146.25;100.00;52631.78;2063327;28;36079;-79
2023/12/17 00:14:06;;;;;;;15.25;9.93;;;;;;;-146.25;100.00;52633.81;2063416;28;34615;-79
2023/12/17 00:15:09;;;;;;;15.35;9.65;;;;;;;-146.25;100.00;52652.06;2056056;28;20086;-79
2023/12/17 00:16:11;;;;;;;13.43;9.75;;;;;;;-146.25;100.00;52652.06;2063997;28;36463;-79
2023/12/17 00:17:13;;;;;;;13.25;10.10;;;;;;;-146.25;100.00;52678.44;2071611;28;35052;-80
2023/12/17 00:18:17;;;;;;;11.55;9.52;;;;;;;-146.25;100.00;52676.41;2063395;28;34262;-79
2023/12/17 00:19:19;;;;;;;12.55;9.77;;;;;;;-146.25;100.00;52619.63;2063309;28;36195;-79
2023/12/17 00:20:20;;;;;;;14.52;9.73;;;;;;;-146.25;100.00;52615.56;2072731;28;20895;-77
2023/12/17 00:21:22;;;;;;;13.38;8.98;;;;;;;-146.25;100.00;52672.34;2072073;28;35608;-79
2023/12/17 00:22:24;;;;;;;13.43;10.13;;;;;;;-146.25;100.00;52648.00;2071742;28;33439;-80
2023/12/17 00:23:26;;;;;;;15.90;10.38;;;;;;;-146.25;100.00;52656.13;2072044;28;36473;-80
2023/12/17 00:24:28;;;;;;;14.38;9.63;;;;;;;-146.25;100.00;52635.84;2071978;28;36336;-79
2023/12/17 00:25:32;;;;;;;12.65;9.85;;;;;;;-146.25;100.00;52648.00;2071820;28;33541;-79
2023/12/17 00:26:34;;;;;;;16.80;10.50;;;;;;;-146.25;100.00;52648.00;2072152;28;36615;-80
2023/12/17 00:27:36;;;;;;;16.52;10.18;;;;;;;-146.25;100.00;52621.66;2071853;28;34850;-79
2023/12/17 00:28:40;;;;;;;12.95;9.23;;;;;;;-146.25;100.00;52615.56;2071301;28;36790;-78
2023/12/17 00:29:42;;;;;;;11.52;9.27;;;;;;;-146.25;100.00;52682.47;2072294;28;35609;-79
2023/12/17 00:30:44;;;;;;;14.85;9.15;;;;;;;-146.25;100.00;52680.47;2072524;28;33291;-79
2023/12/17 00:31:46;;;;;;;11.77;8.20;;;;;;;-146.25;100.00;52631.78;2062765;28;36981;-80
2023/12/17 00:32:48;;;;;;;13.00;9.40;;;;;;;-146.25;100.00;52676.41;2063321;28;35571;-80
2023/12/17 00:33:53;;;;;;;13.20;8.85;;;;;;;-146.25;100.00;52648.00;2063620;28;35669;-79
2023/12/17 00:34:54;;;;;;;13.48;8.73;;;;;;;-146.25;100.00;52668.28;2055097;28;34800;-79
2023/12/17 00:35:58;;;;;;;14.77;8.63;;;;;;;-146.25;100.00;52609.50;2055514;28;35571;-79
2023/12/17 00:37:00;;;;;;;14.68;8.20;;;;;;;-146.25;100.00;52627.75;2071890;28;34561;-80
2023/12/17 00:38:02;;;;;;;12.52;7.75;;;;;;;-146.25;100.00;52676.41;2072161;28;27142;-79
2023/12/17 00:39:04;;;;;;;8.50;7.60;;;;;;;-146.25;100.00;52648.00;2071998;28;36448;-78
2023/12/17 00:40:07;;;;;;;11.88;8.35;;;;;;;-146.25;100.00;52672.34;2071720;28;34046;-80
2023/12/17 00:41:09;;;;;;;11.02;8.18;;;;;;;-146.25;100.00;52643.97;2072338;28;31004;-78
2023/12/17 00:42:11;;;;;;;10.15;7.60;;;;;;;-146.25;100.00;52643.97;2071554;28;39617;-78
2023/12/17 00:43:12;;;;;;;10.85;7.78;;;;;;;-146.25;100.00;52664.22;2071425;28;31526;-79
2023/12/17 00:44:14;;;;;;;12.18;7.70;;;;;;;-146.25;100.00;52643.97;2072045;28;33529;-77
2023/12/17 00:45:16;;;;;;;13.02;7.45;;;;;;;-146.25;100.00;52650.03;2071983;28;37457;-78
2023/12/17 00:46:20;;;;;;;10.63;6.90;;;;;;;-146.25;100.00;52645.97;2071798;28;36628;-79
2023/12/17 00:47:25;;;;;;;12.05;7.97;;;;;;;-146.25;100.00;52696.69;2071602;28;36466;-78
2023/12/17 00:48:26;;;;;;;10.90;7.32;;;;;;;-146.25;100.00;52652.06;2055070;28;33524;-78
2023/12/17 00:49:28;;;;;;;10.45;7.25;;;;;;;-146.25;100.00;52670.31;2055833;28;33001;-79
2023/12/17 00:50:30;;;;;;;10.88;6.63;;;;;;;-146.25;100.00;52652.06;2062943;28;36694;-79
2023/12/17 00:51:34;;;;;;;8.20;6.32;;;;;;;-146.25;100.00;52643.97;2063786;28;33399;-78
2023/12/17 00:52:36;;;;;;;9.88;6.75;;;;;;;-146.25;100.00;52660.19;2064201;28;20034;-78
2023/12/17 00:53:37;;;;;;;11.27;6.70;;;;;;;-146.25;100.00;52650.03;2071872;28;36178;-79
2023/12/17 00:54:41;;;;;;;15.02;7.10;;;;;;;-146.25;100.00;52668.28;2071580;28;34939;-78
2023/12/17 00:55:44;;;;;;;9.80;6.35;;;;;;;-146.25;100.00;52625.72;2063049;28;31951;-78
2023/12/17 00:56:46;;;;;;;10.93;6.32;;;;;;;-146.25;100.00;52668.28;2063314;28;36863;-79
2023/12/17 00:57:48;;;;;;;12.50;6.80;;;;;;;-146.25;100.00;52627.75;2054833;28;37891;-78
2023/12/17 00:58:50;;;;;;;7.50;6.05;;;;;;;-146.25;100.00;52680.47;2055107;28;35110;-77
2023/12/17 00:59:51;;;;;;;10.48;6.80;;;;;;;-146.25;100.00;52666.25;2063071;28;37325;-79
2023/12/17 01:00:53;;;;;;;9.40;6.45;;;;;;;-146.25;100.00;52660.19;2063691;28;20038;-80
2023/12/17 01:01:56;;;;;;;9.20;6.10;;;;;;;-146.25;100.00;52660.19;2071812;28;33856;-79
2023/12/17 01:03:00;;;;;;;9.77;6.50;;;;;;;-146.25;100.00;52623.69;2071825;28;36907;-80
2023/12/17 01:04:02;;;;;;;8.55;6.47;;;;;;;-146.25;100.00;52696.69;2071906;28;34200;-79
2023/12/17 01:05:04;;;;;;;9.57;6.57;;;;;;;-146.25;100.00;52672.34;2071461;28;35954;-79
2023/12/17 01:06:06;;;;;;;7.32;6.03;;;;;;;-146.25;100.00;52678.44;2071742;28;37415;-79
2023/12/17 01:07:09;;;;;;;8.68;6.50;;;;;;;-146.25;100.00;52668.28;2063067;28;31712;-79
2023/12/17 01:08:13;;;;;;;9.57;5.82;;;;;;;-146.25;100.00;52645.97;2055135;28;31784;-79
2023/12/17 01:09:15;;;;;;;10.40;6.65;;;;;;;-146.25;100.00;52680.47;2055057;28;34114;-78
2023/12/17 01:10:17;;;;;;;12.82;6.82;;;;;;;-146.25;100.00;52674.38;2063299;28;36137;-79
2023/12/17 01:11:19;;;;;;;10.18;6.18;;;;;;;-146.25;100.00;52643.97;2062928;28;33981;-78
2023/12/17 01:12:21;;;;;;;9.45;6.60;;;;;;;-146.25;100.00;52678.44;2063106;28;33230;-77
2023/12/17 01:13:25;;;;;;;7.70;6.57;;;;;;;-146.25;100.00;52684.50;2071973;28;35209;-79
2023/12/17 01:14:34;;;;;;;9.90;6.95;;;;;;;-146.25;100.00;52658.16;2071733;28;39041;-78
2023/12/17 01:15:37;;;;;;;12.10;5.97;;;;;;;-146.25;100.00;52670.31;2071679;28;35501;-80
2023/12/17 01:16:39;;;;;;;11.40;6.00;;;;;;;-146.25;100.00;52643.97;2071627;28;35272;-79
2023/12/17 01:17:41;;;;;;;9.82;6.13;;;;;;;-146.25;100.00;52666.25;2062116;28;36995;-77
2023/12/17 01:18:44;;;;;;;9.82;6.18;;;;;;;-146.25;100.00;52668.28;2063295;28;33722;-79
2023/12/17 01:19:45;;;;;;;14.35;6.47;;;;;;;-146.25;100.00;52635.84;2071390;28;36468;-79
2023/12/17 01:20:48;;;;;;;10.18;6.40;;;;;;;-146.25;100.00;52694.66;2072238;28;20125;-79
2023/12/17 01:21:49;;;;;;;9.82;6.18;;;;;;;-146.25;100.00;52639.91;2071403;28;37037;-79
2023/12/17 01:22:51;;;;;;;8.70;6.25;;;;;;;-146.25;100.00;52666.25;2063439;28;30691;-79
2023/12/17 01:23:53;;;;;;;9.25;6.70;;;;;;;-146.25;100.00;52660.19;2055142;28;33910;-79
2023/12/17 01:25:00;;;;;;;7.88;6.03;;;;;;;-146.25;100.00;52678.44;2064216;28;20047;-79
2023/12/17 01:26:02;;;;;;;11.48;6.88;;;;;;;-146.25;100.00;52678.44;2071421;28;35257;-79
2023/12/17 01:27:04;;;;;;;12.95;6.85;;;;;;;-146.25;100.00;52690.59;2071982;28;34238;-79
2023/12/17 01:28:08;;;;;;;8.90;6.15;;;;;;;-146.25;100.00;52645.97;2071723;28;33320;-78
2023/12/17 01:29:10;;;;;;;7.80;6.82;;;;;;;-146.25;100.00;52676.41;2071543;28;33942;-80
2023/12/17 01:30:15;;;;;;;8.55;6.32;;;;;;;-146.25;100.00;52688.56;2071890;28;20042;-78
2023/12/17 01:31:17;;;;;;;9.05;6.60;;;;;;;-146.25;100.00;52658.16;2071988;28;34660;-79
2023/12/17 01:32:19;;;;;;;9.73;6.63;;;;;;;-146.25;100.00;52615.56;2062451;28;33689;-78
2023/12/17 01:33:20;;;;;;;7.13;6.30;;;;;;;-146.25;100.00;52654.09;2062657;28;38692;-79
2023/12/17 01:34:22;;;;;;;8.65;7.30;;;;;;;-146.25;100.00;52633.81;2055130;28;28889;-78
2023/12/17 01:35:24;;;;;;;11.55;7.18;;;;;;;-146.25;100.00;52654.09;2062961;28;36176;-77
2023/12/17 01:36:26;;;;;;;9.82;7.25;;;;;;;-146.25;100.00;52629.75;2071305;28;36610;-79
2023/12/17 01:37:28;;;;;;;9.57;7.00;;;;;;;-146.25;100.00;52688.56;2062756;28;36473;-79
2023/12/17 01:38:30;;;;;;;13.20;7.55;;;;;;;-146.25;100.00;52662.22;2062857;28;36078;-78
2023/12/17 01:39:32;;;;;;;10.30;7.43;;;;;;;-146.25;100.00;52650.03;2071566;28;35866;-78
2023/12/17 01:40:33;;;;;;;8.95;6.93;;;;;;;-146.25;100.00;52637.88;2071497;28;33353;-79
2023/12/17 01:41:35;;;;;;;9.88;7.07;;;;;;;-146.25;100.00;52639.91;2071551;28;35285;-79
2023/12/17 01:42:41;;;;;;;9.05;7.18;;;;;;;-146.25;100.00;52631.78;2062736;28;36964;-80
2023/12/17 01:43:42;;;;;;;8.73;6.25;;;;;;;-146.25;100.00;52670.31;2063475;28;34995;-78
2023/12/17 01:44:44;;;;;;;12.13;6.65;;;;;;;-146.25;100.00;52668.28;2071544;28;29745;-77
2023/12/17 01:45:49;;;;;;;8.23;6.80;;;;;;;-146.25;100.00;52645.97;2071550;28;37637;-78
2023/12/17 01:46:51;;;;;;;12.18;7.10;;;;;;;-146.25;100.00;52660.19;2070912;28;32277;-73
2023/12/17 01:47:52;;;;;;;7.18;6.47;;;;;;;-146.25;100.00;52635.84;2071573;28;35534;-79
2023/12/17 01:48:54;;;;;;;10.32;6.65;;;;;;;-146.25;100.00;52641.94;2071089;28;39607;-78
2023/12/17 01:49:56;;;;;;;9.13;6.13;;;;;;;-146.25;100.00;52635.84;2071243;28;34127;-79
2023/12/17 01:50:58;;;;;;;15.05;6.63;;;;;;;-146.25;100.00;52652.06;2063323;28;35077;-79
2023/12/17 01:52:00;;;;;;;10.95;6.80;;;;;;;-146.25;100.00;52652.06;2062602;28;37722;-79
2023/12/17 01:53:02;;;;;;;13.30;6.43;;;;;;;-146.25;100.00;52684.50;2062939;28;35964;-79
2023/12/17 01:54:04;;;;;;;9.68;6.68;;;;;;;-146.25;100.00;52652.06;2071684;28;36239;-79
2023/12/17 01:55:08;;;;;;;10.40;6.15;;;;;;;-146.25;100.00;52656.13;2062695;28;33823;-79
2023/12/17 01:56:14;;;;;;;7.88;6.00;;;;;;;-146.25;100.00;52650.03;2063661;28;20031;-79
2023/12/17 01:57:18;;;;;;;11.75;6.85;;;;;;;-146.25;100.00;52637.88;2062497;28;37874;-79
2023/12/17 01:58:21;;;;;;;8.38;6.13;;;;;;;-146.25;100.00;52635.84;2064058;28;35910;-79
2023/12/17 01:59:23;;;;;;;10.30;6.00;;;;;;;-146.25;100.00;52672.34;2062518;28;35656;-79
2023/12/17 02:00:25;;;;;;;11.32;6.32;;;;;;;-146.25;100.00;52666.25;2055329;28;34825;-78
2023/12/17 02:01:27;;;;;;;10.45;6.15;;;;;;;-146.25;100.00;52629.75;2062933;28;34304;-80
2023/12/17 02:02:30;;;;;;;8.98;6.03;;;;;;;-146.25;100.00;52625.72;2062479;28;34479;-78
2023/12/17 02:03:34;;;;;;;11.00;5.70;;;;;;;-146.25;100.00;52633.81;2062461;28;36698;-80
2023/12/17 02:04:37;;;;;;;10.48;6.03;;;;;;;-146.25;100.00;52658.16;2055286;28;33175;-79
2023/12/17 02:05:38;;;;;;;9.65;6.15;;;;;;;-146.25;100.00;52668.28;2054610;28;32799;-78
2023/12/17 02:06:40;;;;;;;9.20;6.13;;;;;;;-146.25;100.00;52704.78;2062584;28;35942;-79
2023/12/17 02:07:42;;;;;;;10.50;5.75;;;;;;;-146.25;100.00;52680.47;2062471;28;34980;-78
2023/12/17 02:08:44;;;;;;;9.98;6.00;;;;;;;-146.25;100.00;52599.34;2054839;28;33433;-78
2023/12/17 02:09:46;;;;;;;7.95;5.95;;;;;;;-146.25;100.00;52676.41;2053959;28;35286;-79
2023/12/17 02:10:48;;;;;;;10.10;5.78;;;;;;;-146.25;100.00;52645.97;2063074;28;34205;-80
2023/12/17 02:11:50;;;;;;;8.38;5.32;;;;;;;-146.25;100.00;52658.16;2054913;28;20881;-78
2023/12/17 02:12:51;;;;;;;9.93;6.28;;;;;;;-146.25;100.00;52613.53;2055019;28;38402;-79
2023/12/17 02:13:53;;;;;;;11.88;6.53;;;;;;;-146.25;100.00;52674.38;2071191;28;33432;-79
2023/12/17 02:14:55;;;;;;;11.40;6.03;;;;;;;-146.25;100.00;52668.28;2071125;28;34081;-78
2023/12/17 02:15:57;;;;;;;9.50;5.78;;;;;;;-146.25;100.00;52694.66;2071189;28;36431;-78
2023/12/17 02:16:59;;;;;;;10.43;6.32;;;;;;;-146.25;100.00;52621.66;2062345;28;37236;-78
2023/12/17 02:18:01;;;;;;;11.32;6.38;;;;;;;-146.25;100.00;52672.34;2063170;28;20075;-77
2023/12/17 02:19:06;;;;;;;11.10;6.15;;;;;;;-146.25;100.00;52670.31;2062580;28;35429;-78
2023/12/17 02:20:13;;;;;;;10.18;6.30;;;;;;;-146.25;100.00;52670.31;2055226;28;33624;-78
2023/12/17 02:21:14;;;;;;;10.05;6.03;;;;;;;-146.25;100.00;52645.97;2054856;28;34534;-79
2023/12/17 02:22:16;;;;;;;9.02;6.47;;;;;;;-146.25;100.00;52660.19;2054661;28;36108;-77
2023/12/17 02:23:18;;;;;;;9.13;6.10;;;;;;;-146.25;100.00;52668.28;2071438;28;34433;-78
2023/12/17 02:24:21;;;;;;;10.40;6.40;;;;;;;-146.25;100.00;52648.00;2071087;28;35189;-78
2023/12/17 02:25:24;;;;;;;10.07;6.20;;;;;;;-146.25;100.00;52666.25;2071370;28;34561;-79
2023/12/17 02:26:25;;;;;;;13.85;6.60;;;;;;;-146.25;100.00;52664.22;2070990;28;33890;-79
2023/12/17 02:27:27;;;;;;;10.25;7.00;;;;;;;-146.25;100.00;52637.88;2071594;28;33069;-79
2023/12/17 02:28:30;;;;;;;10.18;6.57;;;;;;;-146.25;100.00;52662.22;2062160;28;36952;-78
2023/12/17 02:29:32;;;;;;;9.77;5.90;;;;;;;-146.25;100.00;52654.09;2055542;28;20043;-79
2023/12/17 02:30:33;;;;;;;10.18;6.40;;;;;;;-146.25;100.00;52643.97;2062622;28;36516;-80
2023/12/17 02:31:35;;;;;;;7.70;6.13;;;;;;;-146.25;100.00;52652.06;2071309;28;38238;-80
2023/12/17 02:32:37;;;;;;;11.07;6.45;;;;;;;-146.25;100.00;52645.97;2062969;28;20030;-79
2023/12/17 02:33:41;;;;;;;9.43;6.32;;;;;;;-146.25;100.00;52643.97;2063049;28;35954;-79
2023/12/17 02:34:43;;;;;;;9.32;5.95;;;;;;;-146.25;100.00;52611.50;2062859;28;20121;-79
2023/12/17 02:35:45;;;;;;;9.77;6.07;;;;;;;-146.25;100.00;52650.03;2063480;28;20889;-80
2023/12/17 02:36:47;;;;;;;11.07;6.35;;;;;;;-146.25;100.00;52692.63;2071116;28;39925;-79
2023/12/17 02:37:49;;;;;;;10.30;5.78;;;;;;;-146.25;100.00;52656.13;2071359;28;36115;-79
2023/12/17 02:38:51;;;;;;;8.88;5.38;;;;;;;-146.25;100.00;52656.13;2071557;28;20108;-78
2023/12/17 02:39:55;;;;;;;7.28;5.80;;;;;;;-146.25;100.00;52599.34;2071126;28;36935;-79
2023/12/17 02:40:58;;;;;;;10.73;5.88;;;;;;;-146.25;100.00;52643.97;2072137;28;20074;-79
2023/12/17 02:41:59;;;;;;;8.07;5.63;;;;;;;-146.25;100.00;52688.56;2071720;28;20038;-78
2023/12/17 02:43:02;;;;;;;8.75;5.30;;;;;;;-146.25;100.00;52688.56;2071362;28;35247;-78
2023/12/17 02:44:04;;;;;;;7.72;5.55;;;;;;;-146.25;100.00;52672.34;2071364;28;34633;-78
2023/12/17 02:45:07;;;;;;;9.45;5.72;;;;;;;-146.25;100.00;52599.34;2062163;28;34884;-77
2023/12/17 02:46:09;;;;;;;10.00;5.43;;;;;;;-146.25;100.00;52672.34;2063020;28;34707;-78
2023/12/17 02:47:12;;;;;;;7.93;5.35;;;;;;;-146.25;100.00;52658.16;2062350;28;20051;-78
2023/12/17 02:48:14;;;;;;;9.75;5.80;;;;;;;-146.25;100.00;52700.72;2063209;28;20077;-79
2023/12/17 02:49:15;;;;;;;9.48;5.75;;;;;;;-146.25;100.00;52676.41;2070973;28;37662;-78
2023/12/17 02:50:17;;;;;;;10.32;5.80;;;;;;;-146.25;100.00;52645.97;2071407;28;33433;-79
2023/12/17 02:51:19;;;;;;;9.52;5.07;;;;;;;-146.25;100.00;52674.38;2071303;28;33692;-79
2023/12/17 02:52:21;;;;;;;9.52;5.50;;;;;;;-146.25;100.00;52686.53;2070867;28;37071;-79
2023/12/17 02:53:23;;;;;;;12.43;5.80;;;;;;;-146.25;100.00;52641.94;2071093;28;35728;-78
2023/12/17 02:54:24;;;;;;;9.20;5.75;;;;;;;-146.25;100.00;52631.78;2071108;28;37134;-79
2023/12/17 02:55:26;;;;;;;7.38;5.15;;;;;;;-146.25;100.00;52639.91;2071113;28;35378;-79
2023/12/17 02:56:28;;;;;;;9.13;5.00;;;;;;;-146.25;100.00;52637.88;2062441;28;32688;-78
2023/12/17 02:57:30;;;;;;;7.88;5.60;;;;;;;-146.25;100.00;52611.50;2062289;28;37128;-78
2023/12/17 02:58:31;;;;;;;7.30;5.28;;;;;;;-146.25;100.00;52639.91;2071805;28;20038;-80
2023/12/17 02:59:33;;;;;;;7.10;4.90;;;;;;;-146.25;100.00;52650.03;2071356;28;26660;-78
2023/12/17 03:00:36;;;;;;;13.57;4.85;;;;;;;-146.25;100.00;52668.28;2070301;28;35339;-79
2023/12/17 03:01:41;;;;;;;7.82;5.05;;;;;;;-146.25;100.00;52643.97;2071105;28;34226;-78
2023/12/17 03:02:47;;;;;;;8.88;5.65;;;;;;;-146.25;100.00;52652.06;2062984;28;36611;-80
2023/12/17 03:03:49;;;;;;;8.02;4.80;;;;;;;-146.25;100.00;52670.31;2063734;28;20233;-80
2023/12/17 03:04:51;;;;;;;9.55;5.20;;;;;;;-146.25;100.00;52621.66;2071362;28;37890;-78
2023/12/17 03:05:53;;;;;;;8.20;4.93;;;;;;;-146.25;100.00;52654.09;2078932;28;35739;-78
2023/12/17 03:06:55;;;;;;;7.05;4.78;;;;;;;-146.25;100.00;52664.22;2080720;28;20986;-78
2023/12/17 03:07:56;;;;;;;8.38;4.70;;;;;;;-146.25;100.00;52635.84;2071211;28;36885;-80
2023/12/17 03:09:00;;;;;;;7.18;5.40;;;;;;;-146.25;100.00;52656.13;2071945;28;36387;-78
2023/12/17 03:10:03;;;;;;;6.80;4.93;;;;;;;-146.25;100.00;52643.97;2073665;28;20047;-78
2023/12/17 03:11:05;;;;;;;8.00;5.20;;;;;;;-146.25;100.00;52650.03;2080302;28;35986;-78
2023/12/17 03:12:06;;;;;;;7.88;4.85;;;;;;;-146.25;100.00;52688.56;2080618;28;34043;-79
2023/12/17 03:13:12;;;;;;;7.13;4.78;;;;;;;-146.25;100.00;52686.53;2081587;28;21066;-79
2023/12/17 03:14:14;;;;;;;7.50;4.93;;;;;;;-146.25;100.00;52676.41;2080390;28;36546;-78
2023/12/17 03:15:18;;;;;;;9.10;4.82;;;;;;;-146.25;100.00;52639.91;2081042;28;20034;-79
2023/12/17 03:16:22;;;;;;;9.00;4.60;;;;;;;-146.25;100.00;52631.78;2072266;28;20123;-76
2023/12/17 03:17:24;;;;;;;9.55;4.60;;;;;;;-146.25;100.00;52652.06;2063889;28;32076;-78
2023/12/17 03:18:25;;;;;;;11.30;5.40;;;;;;;-146.25;100.00;52645.97;2071712;28;37404;-79
2023/12/17 03:19:27;;;;;;;7.60;5.20;;;;;;;-146.25;100.00;52666.25;2080804;28;35484;-79
2023/12/17 03:20:32;;;;;;;6.78;5.43;;;;;;;-146.25;100.00;52635.84;2080259;28;35781;-78
2023/12/17 03:21:33;;;;;;;9.73;5.13;;;;;;;-146.25;100.00;52648.00;2080224;28;31965;-78
2023/12/17 03:22:35;;;;;;;8.38;5.00;;;;;;;-146.25;100.00;52652.06;2080842;28;20044;-77
2023/12/17 03:23:37;;;;;;;6.75;5.25;;;;;;;-146.25;100.00;52682.47;2080241;28;37214;-79
2023/12/17 03:24:39;;;;;;;9.63;5.38;;;;;;;-146.25;100.00;52641.94;2080342;28;39683;-79
2023/12/17 03:25:40;;;;;;;9.60;4.82;;;;;;;-146.25;100.00;52635.84;2080063;28;34719;-79
2023/12/17 03:26:42;;;;;;;8.45;5.10;;;;;;;-146.25;100.00;52672.34;2063812;28;33412;-78
2023/12/17 03:27:44;;;;;;;7.20;5.00;;;;;;;-146.25;100.00;52635.84;2055938;28;37288;-78
2023/12/17 03:28:46;;;;;;;7.88;4.85;;;;;;;-146.25;100.00;52692.63;2071872;28;33283;-79
2023/12/17 03:29:48;;;;;;;12.63;5.00;;;;;;;-146.25;100.00;52670.31;2080283;28;37226;-79
2023/12/17 03:30:50;;;;;;;11.20;4.70;;;;;;;-146.25;100.00;52680.47;2065787;28;20903;-79
2023/12/17 03:31:52;;;;;;;10.98;5.20;;;;;;;-146.25;100.00;52654.09;2063674;28;37668;-78
2023/12/17 03:32:53;;;;;;;13.75;4.93;;;;;;;-146.25;100.00;52629.75;2072597;28;20038;-78
2023/12/17 03:33:55;;;;;;;6.30;4.82;;;;;;;-146.25;100.00;52652.06;2063658;28;33375;-78
2023/12/17 03:34:59;;;;;;;9.23;5.32;;;;;;;-146.25;100.00;52676.41;2064471;28;20863;-78
2023/12/17 03:36:01;;;;;;;9.20;5.10;;;;;;;-146.25;100.00;52648.00;2063247;28;37710;-78
2023/12/17 03:37:06;;;;;;;7.65;4.82;;;;;;;-146.25;100.00;52652.06;2063724;28;33525;-78
2023/12/17 03:38:08;;;;;;;9.95;4.70;;;;;;;-146.25;100.00;52631.78;2073052;28;20042;-78
2023/12/17 03:39:14;;;;;;;9.88;4.55;;;;;;;-146.25;100.00;52670.31;2072166;28;33908;-78
2023/12/17 03:40:16;;;;;;;6.63;4.82;;;;;;;-146.25;100.00;52635.84;2063203;28;35976;-80
2023/12/17 03:41:22;;;;;;;8.07;4.57;;;;;;;-146.25;100.00;52619.63;2065316;28;20894;-78
2023/12/17 03:42:23;;;;;;;8.40;5.07;;;;;;;-146.25;100.00;52656.13;2072094;28;37236;-77
2023/12/17 03:43:27;;;;;;;7.68;4.63;;;;;;;-146.25;100.00;52625.72;2072164;28;34485;-79
2023/12/17 03:44:29;;;;;;;6.82;4.80;;;;;;;-146.25;100.00;52662.22;2073100;28;20038;-78
2023/12/17 03:45:33;;;;;;;7.28;4.97;;;;;;;-146.25;100.00;52656.13;2071901;28;37252;-79
2023/12/17 03:46:35;;;;;;;7.88;4.90;;;;;;;-146.25;100.00;52635.84;2072255;28;34723;-79
2023/12/17 03:47:45;;;;;;;8.85;4.97;;;;;;;-146.25;100.00;52700.72;2071897;28;32591;-79
2023/12/17 03:48:47;;;;;;;9.88;5.10;;;;;;;-146.25;100.00;52623.69;2072601;28;37488;-79
2023/12/17 03:49:51;;;;;;;11.80;4.90;;;;;;;-146.25;100.00;52645.97;2073136;28;20132;-79
2023/12/17 03:50:56;;;;;;;8.30;4.57;;;;;;;-146.25;100.00;52645.97;2072233;28;37829;-79
2023/12/17 03:51:58;;;;;;;7.55;4.85;;;;;;;-146.25;100.00;52631.78;2072142;28;35104;-78
2023/12/17 03:52:59;;;;;;;8.93;5.07;;;;;;;-146.25;100.00;52652.06;2072997;28;20919;-79
2023/12/17 03:54:01;;;;;;;7.88;4.50;;;;;;;-146.25;100.00;52658.16;2072506;28;20155;-79
2023/12/17 03:55:03;;;;;;;10.05;5.22;;;;;;;-146.25;100.00;52654.09;2072226;28;34798;-78
2023/12/17 03:56:14;;;;;;;5.15;4.55;;;;;;;-146.25;100.00;52704.78;2063112;28;32685;-77
2023/12/17 03:57:16;;;;;;;9.52;5.10;;;;;;;-146.25;100.00;52648.00;2056341;28;37202;-79
2023/12/17 03:58:18;;;;;;;12.48;5.18;;;;;;;-146.25;100.00;52662.22;2055924;28;34181;-77
2023/12/17 03:59:20;;;;;;;6.18;5.32;;;;;;;-146.25;100.00;52619.63;2063519;28;35186;-79
2023/12/17 04:00:21;;;;;;;7.68;5.13;;;;;;;-146.25;100.00;52678.44;2071532;28;34263;-77
2023/12/17 04:01:23;;;;;;;9.63;5.82;;;;;;;-146.25;100.00;52676.41;2062004;28;32608;-78
2023/12/17 04:02:26;;;;;;;8.63;5.63;;;;;;;-146.25;100.00;52639.91;2055368;28;36873;-77
2023/12/17 04:03:30;;;;;;;10.05;5.90;;;;;;;-146.25;100.00;52676.41;2063731;28;36721;-80
2023/12/17 04:04:32;;;;;;;10.25;5.50;;;;;;;-146.25;100.00;52672.34;2071966;28;32848;-79
2023/12/17 04:05:33;;;;;;;6.85;5.30;;;;;;;-146.25;100.00;52668.28;2071732;28;38784;-78
2023/12/17 04:06:35;;;;;;;8.05;5.35;;;;;;;-146.25;100.00;52670.31;2071292;28;35885;-79
2023/12/17 04:07:39;;;;;;;9.55;5.90;;;;;;;-146.25;100.00;52643.97;2063249;28;36679;-80
2023/12/17 04:08:41;;;;;;;9.35;5.38;;;;;;;-146.25;100.00;52688.56;2063494;28;35768;-80
2023/12/17 04:09:43;;;;;;;8.60;5.80;;;;;;;-146.25;100.00;52643.97;2072132;28;34437;-78
2023/12/17 04:10:45;;;;;;;11.07;6.20;;;;;;;-146.25;100.00;52660.19;2063270;28;31637;-76
2023/12/17 04:11:46;;;;;;;8.50;5.75;;;;;;;-146.25;100.00;52680.47;2064041;28;38467;-78
2023/12/17 04:12:48;;;;;;;8.07;5.65;;;;;;;-146.25;100.00;52645.97;2072071;28;33885;-80
2023/12/17 04:13:50;;;;;;;9.90;5.95;;;;;;;-146.25;100.00;52639.91;2072291;28;31904;-78
2023/12/17 04:14:52;;;;;;;8.55;5.20;;;;;;;-146.25;100.00;52643.97;2071934;28;36958;-78
2023/12/17 04:15:54;;;;;;;9.07;5.57;;;;;;;-146.25;100.00;52615.56;2063477;28;35570;-78
2023/12/17 04:16:55;;;;;;;8.77;5.60;;;;;;;-146.25;100.00;52619.63;2063140;28;31493;-79
2023/12/17 04:17:57;;;;;;;8.60;5.82;;;;;;;-146.25;100.00;52680.47;2071353;28;35130;-78
2023/12/17 04:18:59;;;;;;;7.10;5.57;;;;;;;-146.25;100.00;52648.00;2063513;28;20133;-80
2023/12/17 04:20:01;;;;;;;10.57;6.13;;;;;;;-146.25;100.00;52704.78;2063228;28;35485;-80
2023/12/17 04:21:03;;;;;;;9.02;6.25;;;;;;;-146.25;100.00;52652.06;2063370;28;36975;-78
2023/12/17 04:22:05;;;;;;;11.73;6.22;;;;;;;-146.25;100.00;52680.47;2063503;28;32448;-78
2023/12/17 04:23:07;;;;;;;10.35;5.90;;;;;;;-146.25;100.00;52682.47;2063531;28;36030;-78
2023/12/17 04:24:08;;;;;;;10.48;6.30;;;;;;;-146.25;100.00;52656.13;2072295;28;34359;-78
2023/12/17 04:25:10;;;;;;;9.60;5.95;;;;;;;-146.25;100.00;52686.53;2071547;28;32859;-77
2023/12/17 04:26:12;;;;;;;9.70;5.60;;;;;;;-146.25;100.00;52694.66;2063360;28;36146;-78
2023/12/17 04:27:14;;;;;;;9.20;6.57;;;;;;;-146.25;100.00;52702.75;2064251;28;20098;-78
2023/12/17 04:28:16;;;;;;;9.48;6.50;;;;;;;-146.25;100.00;52631.78;2063235;28;36683;-78
2023/12/17 04:29:18;;;;;;;11.25;6.50;;;;;;;-146.25;100.00;52700.72;2063129;28;34469;-80
2023/12/17 04:30:20;;;;;;;8.35;6.50;;;;;;;-146.25;100.00;52643.97;2064775;28;20078;-78
2023/12/17 04:31:22;;;;;;;9.00;6.45;;;;;;;-146.25;100.00;52650.03;2071408;28;37787;-78
2023/12/17 04:32:24;;;;;;;13.07;6.82;;;;;;;-146.25;100.00;52652.06;2072075;28;32565;-78
2023/12/17 04:33:25;;;;;;;10.13;6.45;;;;;;;-146.25;100.00;52643.97;2064212;28;20060;-78
2023/12/17 04:34:29;;;;;;;12.65;6.47;;;;;;;-146.25;100.00;52617.59;2063423;28;37199;-78
2023/12/17 04:35:31;;;;;;;8.57;6.55;;;;;;;-146.25;100.00;52645.97;2071399;28;33965;-78
2023/12/17 04:36:33;;;;;;;10.38;6.65;;;;;;;-146.25;100.00;52625.72;2064066;28;20054;-78
2023/12/17 04:37:38;;;;;;;11.95;6.75;;;;;;;-146.25;100.00;52637.88;2064428;28;20047;-79
2023/12/17 04:38:41;;;;;;;13.05;7.18;;;;;;;-146.25;100.00;52650.03;2063384;28;32016;-79
2023/12/17 04:39:45;;;;;;;9.68;6.75;;;;;;;-146.25;100.00;52643.97;2064197;28;20046;-77
2023/12/17 04:40:47;;;;;;;12.65;7.10;;;;;;;-146.25;100.00;52672.34;2071817;28;31295;-79
2023/12/17 04:41:49;;;;;;;8.13;6.30;;;;;;;-146.25;100.00;52680.47;2063030;28;34509;-80